Impacts METAR Board
IDs:

KTPA - Tampa Intl Arpt, FL, US

Updated at: 1600 UTC 22 Sep 2019
Potential Impact None Slight Moderate High
Time 22/04Z 22/05Z 22/06Z 22/07Z 22/08Z 22/09Z 22/10Z 22/11Z 22/12Z 22/13Z 22/14Z 22/15Z 22/16Z
Temp77 76 76 75 74 73 73 73 72 76 81 83 85
Dewpt67 67 67 67 67 67 67 67 67 67 67 65 64
Altim30.13 30.12 30.11 30.11 30.09 30.08 30.08 30.08 30.10 30.11 30.12 30.12 30.10
VIS10 10 10 10 10 10 10 10 10 10 10 10 10
CIG-- -- -- 45 -- -- -- -- -- -- -- -- --
CoverCLRCLRFEWOVCSCTSCTFEWFEWFEWFEWFEWFEWFEW
FltCatVFRVFRVFRVFRVFRVFRVFRVFRVFRVFRVFRVFRVFR
WX--------------------------
WDir60404020403030402050608070
WSpd6 6 6 7 4 5 4 4 5 6 9 9 9
WGst-- -- -- -- -- -- -- -- -- -- 14 16 18
Raw hourly METARs
KTPA 220353Z 06006KT 10SM CLR 25/19 A3013 RMK AO2 SLP201 T02500194
KTPA 220453Z 04006KT 10SM CLR 24/19 A3012 RMK AO2 SLP199 T02440194 403280222
KTPA 220553Z 04006KT 10SM FEW031 24/19 A3011 RMK AO2 SLP196 T02440194 10278 20239 58005
KTPA 220653Z 02007KT 10SM SCT032 OVC045 24/19 A3011 RMK AO2 SLP194 T02390194
KTPA 220753Z 04004KT 10SM FEW032 FEW045 SCT280 23/19 A3009 RMK AO2 SLP188 T02330194
KTPA 220853Z 03005KT 10SM FEW032 SCT280 23/19 A3008 RMK AO2 SLP186 T02280194 58010
KTPA 220953Z 03004KT 10SM FEW032 FEW280 23/19 A3008 RMK AO2 SLP184 T02280194
KTPA 221053Z 04004KT 10SM FEW280 23/19 A3008 RMK AO2 SLP186 T02280194
KTPA 221153Z 02005KT 10SM FEW033 FEW280 22/19 A3010 RMK AO2 SLP193 T02220194 10244 20222 53007
KTPA 221253Z 05006KT 10SM FEW050 24/19 A3011 RMK AO2 SLP197 T02440194
KTPA 221353Z 06009G14KT 020V080 10SM FEW080 27/19 A3012 RMK AO2 SLP199 T02720194
KTPA 221453Z 08009G16KT 10SM FEW040 28/18 A3012 RMK AO2 SLP197 T02830183 50004
KTPA 221553Z 07009G18KT 10SM FEW046 29/18 A3010 RMK AO2 SLP193 T02940178 $



Page loaded:  16:04 UTC  |   09:04 AM Pacific  |   10:04 AM Mountain  |   11:04 AM Central  |   12:04 PM Eastern

 

ADVISORIES

FORECASTS

FORECASTS

OBSERVATIONS

USER TOOLS

ABOUT US